This is the latest recevied weather packets stored in our database for station/object DL4MGC-10. If no packets are shown the sender has not sent any weather packets the latest 1 day(s).
| Time | Temp. | Humidity | Pressure | Rain* | Wind** | Luminosity | Snow |
|---|---|---|---|---|---|---|---|
| 1777788556 | 12.78° C | 72% | 1015.9 hPa | - | - | - | - |
| 1777787656 | 12.22° C | 74% | 1016 hPa | - | - | - | - |
| 1777786756 | 11.67° C | 75% | 1015.9 hPa | - | - | - | - |
| 1777785856 | 10.56° C | 77% | 1016.1 hPa | - | - | - | - |
| 1777784956 | 10.56° C | 77% | 1016 hPa | - | - | - | - |
| 1777784056 | 10° C | 79% | 1016 hPa | - | - | - | - |
| 1777783156 | 9.44° C | 79% | 1015.9 hPa | - | - | - | - |
| 1777782256 | 8.89° C | 82% | 1015.9 hPa | - | - | - | - |
| 1777781355 | 8.89° C | 82% | 1015.8 hPa | - | - | - | - |
| 1777780455 | 8.33° C | 84% | 1015.7 hPa | - | - | - | - |
| 1777779555 | 8.89° C | 82% | 1015.8 hPa | - | - | - | - |
| 1777778655 | 8.89° C | 81% | 1015.8 hPa | - | - | - | - |
| 1777777755 | 8.33° C | 83% | 1015.8 hPa | - | - | - | - |
| 1777776855 | 8.89° C | 83% | 1015.8 hPa | - | - | - | - |
| 1777775955 | 9.44° C | 82% | 1016 hPa | - | - | - | - |
| 1777775055 | 10.56° C | 78% | 1016 hPa | - | - | - | - |
| 1777774155 | 10.56° C | 78% | 1016.1 hPa | - | - | - | - |
| 1777773255 | 10° C | 81% | 1016 hPa | - | - | - | - |
| 1777772355 | 10° C | 80% | 1016 hPa | - | - | - | - |
| 1777771454 | 10.56° C | 79% | 1016 hPa | - | - | - | - |
| 1777770554 | 11.11° C | 76% | 1016.1 hPa | - | - | - | - |
| 1777769654 | 11.11° C | 77% | 1016.1 hPa | - | - | - | - |
| 1777768754 | 11.67° C | 75% | 1016.2 hPa | - | - | - | - |
| 1777767854 | 11.67° C | 75% | 1016.2 hPa | - | - | - | - |
| 1777766954 | 11.67° C | 76% | 1016.3 hPa | - | - | - | - |
* Rain since midnight (hover to see other rain measurements)
** Current wind speed in m/s (hover to see current wind gust speed)